createdAt,value
2022-12-18T00:01:17.343Z,101775.16
2022-12-18T00:03:45.851Z,101779.53
2022-12-18T00:06:14.832Z,101772.53
2022-12-18T00:08:44.160Z,101760.25
2022-12-18T00:11:14.896Z,101763.75
2022-12-18T00:13:42.948Z,101758.50
2022-12-18T00:16:12.104Z,101765.50
2022-12-18T00:18:40.681Z,101759.34
2022-12-18T00:21:09.707Z,101755.84
2022-12-18T00:23:38.528Z,101761.13
2022-12-18T00:26:10.414Z,101757.66
2022-12-18T00:28:38.305Z,101757.63
2022-12-18T00:31:07.280Z,101753.25
2022-12-18T00:33:35.367Z,101749.75
2022-12-18T00:36:03.625Z,101750.63
2022-12-18T00:38:31.509Z,101760.28
2022-12-18T00:40:59.417Z,101757.66
2022-12-18T00:43:27.699Z,101762.03
2022-12-18T00:45:55.647Z,101757.66
2022-12-18T00:48:23.778Z,101756.78
2022-12-18T00:50:51.763Z,101741.00
2022-12-18T00:53:19.666Z,101728.72
2022-12-18T00:55:47.519Z,101712.03
2022-12-18T00:58:15.986Z,101714.66
2022-12-18T01:00:45.370Z,101702.41
2022-12-18T01:03:14.974Z,101699.75
2022-12-18T01:05:43.042Z,101701.53
2022-12-18T01:08:10.993Z,101705.91
2022-12-18T01:10:38.875Z,101708.53
2022-12-18T01:13:06.787Z,101710.28
2022-12-18T01:15:34.647Z,101704.16
2022-12-18T01:18:06.242Z,101714.66
2022-12-18T01:20:34.143Z,101712.91
2022-12-18T01:23:02.051Z,101711.97
2022-12-18T01:25:29.957Z,101704.94
2022-12-18T01:27:58.029Z,101697.03
2022-12-18T01:30:25.919Z,101705.78
2022-12-18T01:32:53.822Z,101702.25
2022-12-18T01:35:23.126Z,101705.72
2022-12-18T01:37:51.018Z,101694.31
2022-12-18T01:40:19.040Z,101684.63
2022-12-18T01:42:46.931Z,101667.06
2022-12-18T01:45:26.467Z,101662.69
2022-12-18T01:47:55.592Z,101659.16
2022-12-18T01:50:26.399Z,101653.00
2022-12-18T01:52:55.292Z,101643.34
2022-12-18T01:55:24.514Z,101647.72
2022-12-18T01:57:52.485Z,101638.03
2022-12-18T02:00:22.183Z,101625.72
2022-12-18T02:02:50.230Z,101623.03
2022-12-18T02:05:19.923Z,101630.00
2022-12-18T02:07:54.592Z,101629.09
2022-12-18T02:10:25.390Z,101624.69
2022-12-18T02:12:57.253Z,101633.41
2022-12-18T02:15:27.396Z,101628.97
2022-12-18T02:17:57.439Z,101629.81
2022-12-18T02:20:28.367Z,101623.63
2022-12-18T02:23:06.756Z,101627.97
2022-12-18T02:25:45.862Z,101634.97
2022-12-18T02:28:15.810Z,101632.34
2022-12-18T02:30:43.735Z,101646.34
2022-12-18T02:33:11.660Z,101653.38
2022-12-18T02:35:39.554Z,101649.84
2022-12-18T02:38:07.417Z,101641.03
2022-12-18T02:40:35.288Z,101645.41
2022-12-18T02:43:05.580Z,101638.38
2022-12-18T02:45:34.911Z,101640.97
2022-12-18T02:48:02.923Z,101643.59
2022-12-18T02:50:33.856Z,101643.59
2022-12-18T02:53:07.116Z,101639.16
2022-12-18T02:55:39.962Z,101633.00
2022-12-18T02:58:10.455Z,101634.72
2022-12-18T03:00:41.299Z,101624.19
2022-12-18T03:03:10.766Z,101626.81
2022-12-18T03:05:40.904Z,101615.34
2022-12-18T03:08:10.054Z,101608.28
2022-12-18T03:10:40.249Z,101611.78
2022-12-18T03:13:10.014Z,101602.09
2022-12-18T03:15:39.747Z,101588.88
2022-12-18T03:18:10.795Z,101569.53
2022-12-18T03:20:38.700Z,101557.22
2022-12-18T03:23:09.801Z,101556.28
2022-12-18T03:25:38.189Z,101550.13
2022-12-18T03:28:06.214Z,101547.47
2022-12-18T03:30:34.144Z,101547.47
2022-12-18T03:33:05.504Z,101532.56
2022-12-18T03:35:34.109Z,101534.28
2022-12-18T03:38:02.008Z,101533.34
2022-12-18T03:40:32.281Z,101524.53
2022-12-18T03:43:01.739Z,101530.69
2022-12-18T03:45:32.651Z,101521.03
2022-12-18T03:48:06.163Z,101508.66
2022-12-18T03:50:39.068Z,101498.06
2022-12-18T03:53:12.879Z,101484.81
2022-12-18T03:55:40.768Z,101487.41
2022-12-18T03:58:08.696Z,101483.03
2022-12-18T04:00:36.576Z,101478.56
2022-12-18T04:03:05.892Z,101473.19
2022-12-18T04:05:33.861Z,101468.72
2022-12-18T04:08:02.094Z,101458.94
2022-12-18T04:10:30.081Z,101454.47
2022-12-18T04:12:58.017Z,101450.91
2022-12-18T04:15:26.043Z,101456.16
2022-12-18T04:17:53.994Z,101441.97
2022-12-18T04:20:23.238Z,101429.63
2022-12-18T04:22:51.155Z,101417.22
2022-12-18T04:25:19.421Z,101415.41
2022-12-18T04:27:47.256Z,101420.66
2022-12-18T04:30:15.219Z,101417.03
2022-12-18T04:32:46.524Z,101409.03
2022-12-18T04:35:17.111Z,101409.03
2022-12-18T04:37:46.673Z,101415.16
2022-12-18T04:40:15.494Z,101408.91
2022-12-18T04:42:43.602Z,101414.19
2022-12-18T04:45:11.885Z,101415.88
2022-12-18T04:47:39.752Z,101414.13
2022-12-18T04:50:08.548Z,101413.16
2022-12-18T04:52:36.427Z,101410.47
2022-12-18T04:55:06.219Z,101407.81
2022-12-18T04:57:34.186Z,101366.63
2022-12-18T05:00:02.061Z,101382.25
2022-12-18T05:02:29.970Z,101391.06
2022-12-18T05:04:57.882Z,101386.66
2022-12-18T05:07:25.768Z,101392.81
2022-12-18T05:09:53.668Z,101385.69
2022-12-18T05:12:25.692Z,101384.78
2022-12-18T05:14:53.547Z,101378.66
2022-12-18T05:17:21.404Z,101376.88
2022-12-18T05:19:49.280Z,101373.31
2022-12-18T05:22:17.246Z,101369.81
2022-12-18T05:24:45.338Z,101372.44
2022-12-18T05:27:13.223Z,101371.53
2022-12-18T05:29:42.523Z,101360.97
2022-12-18T05:32:10.424Z,101361.84
2022-12-18T05:34:38.317Z,101367.06
2022-12-18T05:37:06.221Z,101356.47
2022-12-18T05:39:34.145Z,101352.06
2022-12-18T05:42:02.033Z,101348.56
2022-12-18T05:44:29.931Z,101360.03
2022-12-18T05:46:59.379Z,101360.94
2022-12-18T05:49:27.488Z,101371.50
2022-12-18T05:51:55.422Z,101368.94
2022-12-18T05:54:23.315Z,101358.41
2022-12-18T05:56:51.159Z,101376.03
2022-12-18T05:59:19.092Z,101371.66
2022-12-18T06:01:47.103Z,101359.34
2022-12-18T06:04:16.518Z,101371.72
2022-12-18T06:06:44.480Z,101373.50
2022-12-18T06:09:12.914Z,101367.34
2022-12-18T06:11:40.813Z,101357.69
2022-12-18T06:14:08.940Z,101346.28
2022-12-18T06:16:36.936Z,101334.84
2022-12-18T06:19:06.074Z,101331.38
2022-12-18T06:21:35.656Z,101330.53
2022-12-18T06:24:04.243Z,101326.97
2022-12-18T06:26:32.108Z,101330.53
2022-12-18T06:29:00.038Z,101328.81
2022-12-18T06:31:28.121Z,101342.00
2022-12-18T06:33:57.097Z,101366.63
2022-12-18T06:36:25.006Z,101368.34
2022-12-18T06:38:54.269Z,101359.53
2022-12-18T06:41:22.832Z,101344.63
2022-12-18T06:43:50.769Z,101324.41
2022-12-18T06:46:18.758Z,101330.56
2022-12-18T06:48:49.258Z,101313.88
2022-12-18T06:51:19.251Z,101287.44
2022-12-18T06:53:47.149Z,101266.31
2022-12-18T06:56:16.440Z,101246.91
2022-12-18T06:58:44.654Z,101234.66
2022-12-18T07:01:13.109Z,101241.72
2022-12-18T07:03:42.193Z,101227.63
2022-12-18T07:06:15.542Z,101229.38
2022-12-18T07:08:43.455Z,101237.41
2022-12-18T07:11:11.332Z,101242.59
2022-12-18T07:13:40.872Z,101233.88
2022-12-18T07:16:15.972Z,101239.13
2022-12-18T07:18:45.271Z,101235.59
2022-12-18T07:21:14.112Z,101232.03
2022-12-18T07:23:42.547Z,101225.88
2022-12-18T07:26:11.934Z,101213.63
2022-12-18T07:28:41.836Z,101210.06
2022-12-18T07:31:10.824Z,101207.41
2022-12-18T07:33:40.204Z,101197.72
2022-12-18T07:36:09.154Z,101197.69
2022-12-18T07:38:37.364Z,101177.47
2022-12-18T07:41:05.867Z,101172.19
2022-12-18T07:43:34.765Z,101152.78
2022-12-18T07:46:04.118Z,101164.22
2022-12-18T07:48:32.086Z,101174.75
2022-12-18T07:51:00.567Z,101179.19
2022-12-18T07:53:28.616Z,101171.22
2022-12-18T07:56:25.499Z,101160.66
2022-12-18T07:58:49.326Z,101162.38
2022-12-18T08:01:18.883Z,101154.38
2022-12-18T08:03:47.045Z,101152.63
2022-12-18T08:06:16.104Z,101154.34
2022-12-18T08:08:44.110Z,101133.16
2022-12-18T08:11:12.085Z,101126.09
2022-12-18T08:13:40.325Z,101125.16
2022-12-18T08:16:10.109Z,101127.75
2022-12-18T08:18:43.194Z,101122.53
2022-12-18T08:21:11.457Z,101113.53
2022-12-18T08:23:42.651Z,101105.59
2022-12-18T08:26:11.454Z,101089.72
2022-12-18T08:28:39.602Z,101076.44
2022-12-18T08:31:07.864Z,101072.91
2022-12-18T08:33:35.921Z,101067.56
2022-12-18T08:36:06.049Z,101066.66
2022-12-18T08:38:33.953Z,101052.47
2022-12-18T08:41:02.200Z,101050.66
2022-12-18T08:43:47.446Z,101039.19
2022-12-18T08:46:18.099Z,101035.75
2022-12-18T08:48:46.062Z,101040.91
2022-12-18T08:51:15.390Z,101059.41
2022-12-18T08:53:44.078Z,101046.97
2022-12-18T08:56:12.129Z,101031.09
2022-12-18T08:58:40.056Z,101050.44
2022-12-18T09:01:09.915Z,101057.38
2022-12-18T09:03:38.247Z,101058.19
2022-12-18T09:06:06.914Z,101036.13
2022-12-18T09:08:37.568Z,101036.00
2022-12-18T09:11:05.835Z,101031.53
2022-12-18T09:13:33.726Z,101028.75
2022-12-18T09:16:01.706Z,101024.28
2022-12-18T09:18:29.611Z,101001.31
2022-12-18T09:20:57.514Z,100982.69
2022-12-18T09:23:26.226Z,101000.16
2022-12-18T09:26:00.443Z,101000.94
2022-12-18T09:28:28.343Z,100998.19
2022-12-18T09:30:56.336Z,100989.31
2022-12-18T09:33:24.263Z,100950.00
2022-12-18T09:35:52.359Z,100979.44
2022-12-18T09:38:20.912Z,100968.66
2022-12-18T09:40:49.936Z,100956.41
2022-12-18T09:43:20.604Z,100950.88
2022-12-18T09:45:50.085Z,100936.66
2022-12-18T09:48:20.129Z,100915.34
2022-12-18T09:50:48.046Z,100911.63
2022-12-18T09:53:17.911Z,100900.94
2022-12-18T09:55:47.342Z,100906.91
2022-12-18T09:58:21.556Z,100895.22
2022-12-18T10:00:49.547Z,100904.00
2022-12-18T10:03:17.534Z,100899.31
2022-12-18T10:05:49.138Z,100884.19
2022-12-18T10:08:19.979Z,100882.28
2022-12-18T10:10:49.463Z,100870.59
2022-12-18T10:13:24.124Z,100854.03
2022-12-18T10:16:03.809Z,100872.03
2022-12-18T10:18:39.555Z,100864.78
2022-12-18T10:21:11.412Z,100860.16
2022-12-18T10:23:46.573Z,100845.13
2022-12-18T10:26:16.463Z,100852.75
2022-12-18T10:28:45.955Z,100834.28
2022-12-18T10:31:17.021Z,100838.34
2022-12-18T10:33:45.008Z,100833.75
2022-12-18T10:36:12.896Z,100822.13
2022-12-18T10:38:41.068Z,100825.47
2022-12-18T10:41:26.968Z,100832.28
2022-12-18T10:44:15.100Z,100821.41
2022-12-18T10:46:43.107Z,100815.03
2022-12-18T10:49:21.111Z,100813.81
2022-12-18T10:51:49.042Z,100796.00
2022-12-18T10:54:17.591Z,100798.47
2022-12-18T10:56:45.549Z,100794.56
2022-12-18T10:59:16.583Z,100785.31
2022-12-18T11:01:49.276Z,100783.31
2022-12-18T11:04:19.843Z,100770.72
2022-12-18T11:06:58.954Z,100770.44
2022-12-18T11:09:27.845Z,100759.50
2022-12-18T11:11:57.054Z,100749.53
2022-12-18T11:14:27.261Z,100753.81
2022-12-18T11:17:24.343Z,100749.06
2022-12-18T11:19:43.331Z,100738.25
2022-12-18T11:22:20.979Z,100743.28
2022-12-18T11:25:29.665Z,100730.03
2022-12-18T11:27:42.977Z,100716.28
2022-12-18T11:30:22.503Z,100720.56
2022-12-18T11:32:50.571Z,100717.84
2022-12-18T11:35:20.427Z,100711.34
2022-12-18T11:37:50.604Z,100706.81
2022-12-18T11:40:19.879Z,100706.44
2022-12-18T11:42:50.953Z,100695.59
2022-12-18T11:45:32.049Z,100679.47
2022-12-18T11:48:02.665Z,100681.13
2022-12-18T11:50:33.824Z,100671.09
2022-12-18T11:53:05.891Z,100662.91
2022-12-18T11:55:39.609Z,100653.91
2022-12-18T11:58:12.020Z,100646.59
2022-12-18T12:00:46.971Z,100651.78
2022-12-18T12:03:29.773Z,100634.75
2022-12-18T12:06:03.476Z,100621.16
2022-12-18T12:08:37.527Z,100630.88
2022-12-18T12:11:08.832Z,100643.19
2022-12-18T12:13:45.699Z,100623.56
2022-12-18T12:16:19.120Z,100617.22
2022-12-18T12:19:04.089Z,100608.31
2022-12-18T12:21:37.817Z,100608.97
2022-12-18T12:24:11.419Z,100600.13
2022-12-18T12:26:44.178Z,100597.25
2022-12-18T12:29:21.409Z,100593.63
2022-12-18T12:32:00.778Z,100593.59
2022-12-18T12:34:29.137Z,100583.56
2022-12-18T12:37:05.432Z,100581.00
2022-12-18T12:39:35.183Z,100579.06
2022-12-18T12:42:20.784Z,100581.63
2022-12-18T12:44:55.763Z,100577.19
2022-12-18T12:47:27.764Z,100583.22
2022-12-18T12:49:56.101Z,100576.88
2022-12-18T12:52:29.923Z,100567.16
2022-12-18T12:54:58.177Z,100555.56
2022-12-18T12:57:29.337Z,100545.88
2022-12-18T13:00:00.471Z,100546.56
2022-12-18T13:02:32.363Z,100541.44
2022-12-18T13:05:03.406Z,100533.38
2022-12-18T13:07:34.285Z,100531.47
2022-12-18T13:10:25.678Z,100531.38
2022-12-18T13:12:58.233Z,100543.75
2022-12-18T13:15:32.369Z,100545.56
2022-12-18T13:18:18.434Z,100533.91
2022-12-18T13:20:53.151Z,100519.09
2022-12-18T13:23:44.141Z,100515.28
2022-12-18T13:26:32.268Z,100513.41
2022-12-18T13:29:00.357Z,100509.78
2022-12-18T13:32:01.473Z,100499.00
2022-12-18T13:34:32.003Z,100496.47
2022-12-18T13:37:33.398Z,100511.28
2022-12-18T13:40:01.337Z,100509.31
2022-12-18T13:42:58.441Z,100495.09
2022-12-18T13:45:41.464Z,100483.59
2022-12-18T13:48:26.302Z,100483.53
2022-12-18T13:51:06.211Z,100489.47
2022-12-18T13:53:38.222Z,100488.44
2022-12-18T13:56:06.530Z,100486.66
2022-12-18T13:58:35.352Z,100484.75
2022-12-18T14:01:05.710Z,100483.91
2022-12-18T14:03:33.811Z,100476.53
2022-12-18T14:06:05.679Z,100456.03
2022-12-18T14:08:40.753Z,100460.78
2022-12-18T14:11:09.140Z,100461.09
2022-12-18T14:13:41.239Z,100438.13
2022-12-18T14:16:09.811Z,100445.13
2022-12-18T14:18:45.793Z,100443.41
2022-12-18T14:21:22.366Z,100426.75
2022-12-18T14:23:50.269Z,100434.84
2022-12-18T14:26:28.226Z,100418.16
2022-12-18T14:28:56.433Z,100413.94
2022-12-18T14:31:25.266Z,100414.19
2022-12-18T14:33:53.676Z,100403.81
2022-12-18T14:36:23.462Z,100414.16
2022-12-18T14:38:52.385Z,100400.53
2022-12-18T14:41:20.877Z,100403.50
2022-12-18T14:43:49.859Z,100417.59
2022-12-18T14:46:32.208Z,100403.94
2022-12-18T14:49:00.208Z,100407.34
2022-12-18T14:51:29.857Z,100411.56
2022-12-18T14:53:58.699Z,100419.47
2022-12-18T14:56:27.436Z,100413.09
2022-12-18T14:58:56.884Z,100427.88
2022-12-18T15:01:27.673Z,100409.09
2022-12-18T15:03:55.876Z,100417.78
2022-12-18T15:06:31.237Z,100410.81
2022-12-18T15:08:59.584Z,100410.81
2022-12-18T15:11:28.926Z,100403.06
2022-12-18T15:13:56.945Z,100401.97
2022-12-18T15:16:24.983Z,100413.75
2022-12-18T15:18:52.954Z,100419.00
2022-12-18T15:21:21.400Z,100407.38
2022-12-18T15:23:51.992Z,100412.97
2022-12-18T15:26:20.977Z,100406.53
2022-12-18T15:28:49.797Z,100403.66
2022-12-18T15:31:32.906Z,100383.06
2022-12-18T15:34:12.032Z,100375.75
2022-12-18T15:36:39.990Z,100376.50
2022-12-18T15:39:12.168Z,100382.50
2022-12-18T15:41:40.133Z,100376.22
2022-12-18T15:44:22.956Z,100362.78
2022-12-18T15:46:50.950Z,100366.06
2022-12-18T15:49:18.917Z,100364.25
2022-12-18T15:51:54.329Z,100355.28
2022-12-18T15:54:43.619Z,100362.53
2022-12-18T15:57:25.999Z,100358.69
2022-12-18T15:59:55.132Z,100356.13
2022-12-18T16:02:23.926Z,100360.44
2022-12-18T16:04:52.303Z,100344.31
2022-12-18T16:07:23.024Z,100345.06
2022-12-18T16:09:55.478Z,100345.81
2022-12-18T16:12:25.184Z,100350.00
2022-12-18T16:14:53.102Z,100338.28
2022-12-18T16:17:23.590Z,100342.56
2022-12-18T16:19:51.648Z,100338.00
2022-12-18T16:22:23.041Z,100341.53
2022-12-18T16:24:51.190Z,100342.50
2022-12-18T16:27:20.558Z,100334.50
2022-12-18T16:29:48.444Z,100343.34
2022-12-18T16:32:17.459Z,100329.22
2022-12-18T16:34:45.524Z,100343.91
2022-12-18T16:37:14.460Z,100338.69
2022-12-18T16:39:42.396Z,100342.84
2022-12-18T16:42:15.369Z,100341.06
2022-12-18T16:44:45.068Z,100340.09
2022-12-18T16:47:15.044Z,100344.38
2022-12-18T16:49:43.484Z,100346.94
2022-12-18T16:52:11.452Z,100346.00
2022-12-18T16:54:39.292Z,100342.06
2022-12-18T16:57:07.202Z,100335.78
2022-12-18T16:59:38.152Z,100324.91
2022-12-18T17:02:07.967Z,100321.38
2022-12-18T17:04:36.103Z,100328.22
2022-12-18T17:07:04.678Z,100316.59
2022-12-18T17:09:32.570Z,100330.50
2022-12-18T17:12:03.640Z,100326.00
2022-12-18T17:14:32.811Z,100332.09
2022-12-18T17:17:21.012Z,100333.84
2022-12-18T17:19:50.366Z,100333.63
2022-12-18T17:22:18.297Z,100318.38
2022-12-18T17:24:46.195Z,100320.81
2022-12-18T17:27:15.370Z,100324.25
2022-12-18T17:29:47.779Z,100307.34
2022-12-18T17:32:16.235Z,100317.97
2022-12-18T17:34:44.154Z,100305.34
2022-12-18T17:37:13.526Z,100304.28
2022-12-18T17:39:42.055Z,100307.72
2022-12-18T17:42:15.200Z,100303.44
2022-12-18T17:44:44.081Z,100289.94
2022-12-18T17:47:13.156Z,100301.41
2022-12-18T17:49:41.292Z,100301.22
2022-12-18T17:52:09.193Z,100295.75
2022-12-18T17:54:41.371Z,100287.66
2022-12-18T17:57:09.379Z,100301.75
2022-12-18T17:59:37.395Z,100298.88
2022-12-18T18:02:05.431Z,100312.25
2022-12-18T18:04:33.644Z,100303.38
2022-12-18T18:07:01.751Z,100300.59
2022-12-18T18:09:29.735Z,100295.06
2022-12-18T18:12:16.632Z,100295.81
2022-12-18T18:14:47.844Z,100287.97
2022-12-18T18:17:16.047Z,100293.88
2022-12-18T18:19:48.021Z,100291.97
2022-12-18T18:22:17.788Z,100284.81
2022-12-18T18:24:46.931Z,100297.19
2022-12-18T18:27:16.363Z,100295.22
2022-12-18T18:29:44.737Z,100287.97
2022-12-18T18:32:12.684Z,100281.53
2022-12-18T18:34:43.135Z,100280.38
2022-12-18T18:37:11.038Z,100286.59
2022-12-18T18:39:39.222Z,100283.78
2022-12-18T18:42:07.230Z,100280.81
2022-12-18T18:44:36.551Z,100281.56
2022-12-18T18:47:06.943Z,100287.78
2022-12-18T18:49:37.582Z,100292.06
2022-12-18T18:52:07.212Z,100291.09
2022-12-18T18:54:35.302Z,100283.59
2022-12-18T18:57:19.848Z,100280.94
2022-12-18T18:59:50.167Z,100287.03
2022-12-18T19:02:18.529Z,100291.63
2022-12-18T19:04:47.004Z,100284.16
2022-12-18T19:07:16.443Z,100282.44
2022-12-18T19:09:57.325Z,100286.84
2022-12-18T19:12:44.600Z,100277.81
2022-12-18T19:15:13.819Z,100276.97
2022-12-18T19:17:42.300Z,100283.94
2022-12-18T19:20:15.207Z,100279.56
2022-12-18T19:22:43.394Z,100275.69
2022-12-18T19:25:13.981Z,100273.78
2022-12-18T19:27:41.929Z,100274.41
2022-12-18T19:30:11.556Z,100276.00
2022-12-18T19:32:40.927Z,100284.78
2022-12-18T19:35:10.689Z,100290.13
2022-12-18T19:37:38.617Z,100287.91
2022-12-18T19:40:12.107Z,100292.28
2022-12-18T19:42:41.908Z,100293.03
2022-12-18T19:45:10.743Z,100277.94
2022-12-18T19:47:39.973Z,100276.03
2022-12-18T19:50:09.417Z,100270.34
2022-12-18T19:52:37.600Z,100264.13
2022-12-18T19:55:06.171Z,100267.44
2022-12-18T19:57:34.848Z,100270.78
2022-12-18T20:00:02.776Z,100269.69
2022-12-18T20:02:31.256Z,100264.25
2022-12-18T20:05:00.793Z,100257.91
2022-12-18T20:07:28.763Z,100263.91
2022-12-18T20:10:02.615Z,100263.06
2022-12-18T20:12:33.626Z,100261.00
2022-12-18T20:15:01.489Z,100260.66
2022-12-18T20:17:29.357Z,100262.28
2022-12-18T20:19:57.604Z,100263.69
2022-12-18T20:22:27.233Z,100260.75
2022-12-18T20:24:55.151Z,100265.81
2022-12-18T20:27:23.127Z,100252.44
2022-12-18T20:29:52.031Z,100254.03
2022-12-18T20:32:20.177Z,100254.69
2022-12-18T20:34:48.368Z,100251.03
2022-12-18T20:37:16.664Z,100256.38
2022-12-18T20:39:48.918Z,100257.03
2022-12-18T20:42:17.379Z,100249.09
2022-12-18T20:44:45.912Z,100243.50
2022-12-18T20:47:13.920Z,100233.66
2022-12-18T20:49:44.853Z,100229.88
2022-12-18T20:52:13.879Z,100213.06
2022-12-18T20:54:41.793Z,100218.53
2022-12-18T20:57:11.102Z,100222.19
2022-12-18T20:59:42.078Z,100222.94
2022-12-18T21:02:14.490Z,100215.75
2022-12-18T21:04:42.570Z,100221.09
2022-12-18T21:07:10.461Z,100205.13
2022-12-18T21:09:38.697Z,100202.25
2022-12-18T21:12:24.844Z,100203.31
2022-12-18T21:14:54.096Z,100206.13
2022-12-18T21:17:21.964Z,100200.00
2022-12-18T21:19:49.844Z,100197.44
2022-12-18T21:22:18.078Z,100196.56
2022-12-18T21:24:46.236Z,100173.22
2022-12-18T21:27:17.682Z,100202.59
2022-12-18T21:29:49.882Z,100196.56
2022-12-18T21:32:21.090Z,100213.63
2022-12-18T21:34:52.102Z,100211.91
2022-12-18T21:37:20.030Z,100216.31
2022-12-18T21:39:48.072Z,100211.03
2022-12-18T21:42:33.535Z,100208.38
2022-12-18T21:45:01.420Z,100209.22
2022-12-18T21:47:30.688Z,100216.41
2022-12-18T21:49:58.647Z,100217.19
2022-12-18T21:52:31.911Z,100206.47
2022-12-18T21:55:06.640Z,100214.38
2022-12-18T21:57:36.167Z,100219.84
2022-12-18T22:00:05.143Z,100218.00
2022-12-18T22:02:34.478Z,100219.72
2022-12-18T22:05:02.515Z,100201.94
2022-12-18T22:07:30.640Z,100202.69
2022-12-18T22:09:58.683Z,100213.38
2022-12-18T22:12:43.192Z,100216.19
2022-12-18T22:15:12.003Z,100212.56
2022-12-18T22:17:43.669Z,100214.16
2022-12-18T22:20:14.134Z,100220.47
2022-12-18T22:22:42.034Z,100223.16
2022-12-18T22:25:10.858Z,100220.34
2022-12-18T22:27:38.828Z,100213.31
2022-12-18T22:30:06.934Z,100213.91
2022-12-18T22:32:35.134Z,100228.78
2022-12-18T22:35:08.325Z,100226.97
2022-12-18T22:37:38.478Z,100231.25
2022-12-18T22:40:07.626Z,100226.66
2022-12-18T22:42:36.621Z,100232.13
2022-12-18T22:45:04.861Z,100232.13
2022-12-18T22:47:32.760Z,100233.81
2022-12-18T22:50:00.632Z,100236.50
2022-12-18T22:52:29.917Z,100232.75
2022-12-18T22:54:57.798Z,100241.03
2022-12-18T22:57:25.799Z,100240.03
2022-12-18T22:59:53.682Z,100230.41
2022-12-18T23:02:21.684Z,100233.31
2022-12-18T23:04:49.764Z,100240.25
2022-12-18T23:07:17.772Z,100232.47
2022-12-18T23:09:47.091Z,100253.03
2022-12-18T23:12:21.322Z,100241.38
2022-12-18T23:14:49.394Z,100244.03
2022-12-18T23:17:17.247Z,100235.22
2022-12-18T23:19:48.983Z,100234.41
2022-12-18T23:22:17.290Z,100236.22
2022-12-18T23:24:46.536Z,100237.81
2022-12-18T23:27:14.408Z,100242.31
2022-12-18T23:29:42.289Z,100242.19
2022-12-18T23:32:11.419Z,100248.41
2022-12-18T23:34:39.349Z,100252.56
2022-12-18T23:37:07.254Z,100248.28
2022-12-18T23:39:35.134Z,100250.97
2022-12-18T23:42:04.502Z,100242.94
2022-12-18T23:44:32.357Z,100242.94
2022-12-18T23:47:00.224Z,100243.72
2022-12-18T23:49:28.218Z,100245.28
2022-12-18T23:51:56.358Z,100233.00
2022-12-18T23:54:32.670Z,100238.34
2022-12-18T23:57:01.423Z,100231.25
2022-12-18T23:59:30.765Z,100240.16
